Time;durP1;ratioP1;P1;durP2;ratioP2;P2;SDS_P1;SDS_P2;PMS_P1;PMS_P2;Temp;Humidity;BMP_temperature;BMP_pressure;BME280_temperature;BME280_humidity;BME280_pressure;Samples;Min_cycle;Max_cycle;Signal;HPM_P1;HPM_P2
2022/01/20 00:03:36;;;;;;;;;;;;;;;13.02;51.79;100447.63;4979042;28;98399;-64
2022/01/20 00:08:52;;;;;;;;;;;;;;;12.99;51.82;100430.03;4979923;27;98114;-56
2022/01/20 00:27:53;;;;;;;;;;;;;;;12.99;52.13;100429.22;4978319;28;97707;-64
2022/01/20 00:30:34;;;;;;;;;;;;;;;12.99;52.18;100426.53;4982908;28;97778;-56
2022/01/20 00:37:15;;;;;;;;;;;;;;;12.99;52.11;100424.63;4980976;27;98213;-56
2022/01/20 00:38:23;;;;;;;;;;;;;;;12.99;52.04;100421.13;4981667;28;98845;-64
2022/01/20 00:40:48;;;;;;;;;;;;;;;12.98;51.81;100427.63;4981905;27;102214;-57
2022/01/20 00:43:14;;;;;;;;;;;;;;;12.99;52.07;100427.34;4980238;27;129226;-64
2022/01/20 00:45:40;;;;;;;;;;;;;;;12.99;52.19;100426.53;4980686;28;129105;-64
2022/01/20 00:48:06;;;;;;;;;;;;;;;12.99;52.03;100427.34;4980396;28;128982;-56
2022/01/20 00:50:34;;;;;;;;;;;;;;;12.99;52.35;100432.75;4981188;27;119237;-64
2022/01/20 00:53:00;;;;;;;;;;;;;;;13.01;52.07;100440.59;4983331;28;98073;-63
2022/01/20 00:55:26;;;;;;;;;;;;;;;13.01;52.31;100429.78;4981031;27;125139;-64
2022/01/20 00:57:52;;;;;;;;;;;;;;;13.02;52.10;100443.00;4981010;28;126834;-57
2022/01/20 01:00:18;;;;;;;;;;;;;;;13.02;52.07;100432.19;4980410;27;118015;-56
2022/01/20 01:02:44;;;;;;;;;;;;;;;13.02;52.20;100434.88;4980785;28;126581;-56
2022/01/20 01:05:10;;;;;;;;;;;;;;;13.03;52.14;100433.78;4981205;28;128747;-63
2022/01/20 01:10:09;;;;;;;;;;;;;;;13.03;52.06;100452.72;4981222;27;97971;-63
2022/01/20 01:12:47;;;;;;;;;;;;;;;13.03;52.19;100452.72;4979940;27;98978;-64
2022/01/20 01:15:19;;;;;;;;;;;;;;;13.04;52.13;100467.06;4981930;27;98645;-57
2022/01/20 01:20:32;;;;;;;;;;;;;;;13.04;52.18;100467.06;4981772;28;97976;-64
2022/01/20 01:22:58;;;;;;;;;;;;;;;13.05;52.16;100462.44;4981920;27;98153;-64
2022/01/20 01:25:24;;;;;;;;;;;;;;;13.06;52.38;100477.63;4980214;27;126875;-57
2022/01/20 01:27:50;;;;;;;;;;;;;;;13.04;52.37;100486.00;4980852;28;98503;-63
2022/01/20 01:30:31;;;;;;;;;;;;;;;13.06;52.63;100493.84;4981326;27;97833;-56
2022/01/20 01:32:58;;;;;;;;;;;;;;;13.05;52.29;100479.53;4981306;27;98347;-64
2022/01/20 01:35:26;;;;;;;;;;;;;;;13.06;52.16;100483.84;4981275;27;98582;-56
2022/01/20 01:40:21;;;;;;;;;;;;;;;13.03;52.23;100481.69;4980930;27;97990;-65
2022/01/20 01:42:49;;;;;;;;;;;;;;;13.02;52.39;100469.25;4981465;27;98819;-56
2022/01/20 01:45:25;;;;;;;;;;;;;;;13.03;52.41;100465.47;4981417;27;98301;-57
2022/01/20 01:47:51;;;;;;;;;;;;;;;13.01;52.54;100464.94;4980415;28;98326;-56
2022/01/20 01:50:17;;;;;;;;;;;;;;;13.00;52.65;100474.13;4978382;28;116235;-62
2022/01/20 01:52:43;;;;;;;;;;;;;;;12.99;52.81;100470.63;4980535;28;98629;-56
2022/01/20 01:55:09;;;;;;;;;;;;;;;12.98;52.50;100466.31;4979475;27;98878;-64
2022/01/20 01:57:35;;;;;;;;;;;;;;;12.99;52.48;100456.28;4981547;27;97898;-57
2022/01/20 02:00:03;;;;;;;;;;;;;;;12.98;52.67;100454.69;4979324;27;110485;-64
2022/01/20 02:02:29;;;;;;;;;;;;;;;12.98;52.52;100458.19;4980807;27;123440;-57
2022/01/20 02:04:55;;;;;;;;;;;;;;;12.98;52.63;100460.09;4979217;28;127527;-57
2022/01/20 02:20:52;;;;;;;;;;;;;;;12.94;52.65;100470.69;4981371;27;97933;-64
2022/01/20 02:23:18;;;;;;;;;;;;;;;12.92;52.75;100459.31;4977514;28;115104;-64
2022/01/20 02:25:45;;;;;;;;;;;;;;;12.92;52.59;100462.03;4977804;27;98492;-56
2022/01/20 02:28:11;;;;;;;;;;;;;;;12.92;52.88;100458.50;4980928;28;98186;-64
2022/01/20 02:30:38;;;;;;;;;;;;;;;12.89;52.43;100451.78;4980230;27;116320;-57
2022/01/20 02:33:06;;;;;;;;;;;;;;;12.89;52.81;100450.94;4979290;27;119945;-57
2022/01/20 02:35:35;;;;;;;;;;;;;;;12.87;52.47;100434.22;4979586;27;98178;-64
2022/01/20 02:38:13;;;;;;;;;;;;;;;12.85;52.57;100433.66;4980567;28;98087;-64
2022/01/20 02:45:55;;;;;;;;;;;;;;;12.82;52.74;100445.09;4979983;28;97902;-57
2022/01/20 02:48:21;;;;;;;;;;;;;;;12.81;52.66;100454.25;4979919;28;103791;-64
2022/01/20 02:50:46;;;;;;;;;;;;;;;12.82;52.67;100466.72;4979705;27;117276;-64
2022/01/20 02:53:12;;;;;;;;;;;;;;;12.81;52.71;100459.66;4979798;28;117944;-56
2022/01/20 02:55:38;;;;;;;;;;;;;;;12.80;52.50;100461.56;4978619;28;129738;-57
2022/01/20 02:58:05;;;;;;;;;;;;;;;12.81;52.81;100467.78;4979676;28;128234;-56
2022/01/20 03:00:33;;;;;;;;;;;;;;;12.82;52.71;100478.34;4979588;27;98092;-64
2022/01/20 03:03:00;;;;;;;;;;;;;;;12.84;52.84;100469.94;4972317;28;98414;-64
2022/01/20 03:05:25;;;;;;;;;;;;;;;12.84;52.65;100464.53;4979492;28;120092;-57
2022/01/20 03:07:52;;;;;;;;;;;;;;;12.83;52.69;100461.03;4979131;28;120024;-64
2022/01/20 03:10:18;;;;;;;;;;;;;;;12.85;52.72;100460.72;4979303;28;117535;-64
2022/01/20 03:12:44;;;;;;;;;;;;;;;12.82;52.54;100455.91;4979883;27;98032;-56
2022/01/20 03:15:10;;;;;;;;;;;;;;;12.84;52.73;100465.31;4979182;28;121622;-56
2022/01/20 03:17:35;;;;;;;;;;;;;;;12.83;52.63;100463.72;4979220;27;106267;-64
2022/01/20 03:20:02;;;;;;;;;;;;;;;12.82;52.74;100467.53;4979416;27;118347;-57
2022/01/20 03:22:27;;;;;;;;;;;;;;;12.83;52.68;100474.53;4979761;27;98351;-64
2022/01/20 03:24:55;;;;;;;;;;;;;;;12.82;52.71;100478.34;4978430;28;127052;-56
2022/01/20 03:27:21;;;;;;;;;;;;;;;12.81;52.78;100484.84;4979546;28;98175;-64
2022/01/20 03:29:47;;;;;;;;;;;;;;;12.80;52.73;100495.94;4978939;28;117690;-64
2022/01/20 03:32:13;;;;;;;;;;;;;;;12.79;52.73;100492.44;4978672;28;126861;-64
2022/01/20 03:34:38;;;;;;;;;;;;;;;12.76;52.60;100491.06;4977951;27;127730;-57
2022/01/20 03:37:05;;;;;;;;;;;;;;;12.74;52.69;100495.97;4982558;28;126763;-63
2022/01/20 03:39:33;;;;;;;;;;;;;;;12.73;52.54;100483.56;4983332;27;97685;-64
2022/01/20 03:41:59;;;;;;;;;;;;;;;12.71;52.68;100491.13;4981373;28;128525;-56
2022/01/20 03:44:25;;;;;;;;;;;;;;;12.69;52.59;100481.66;4983159;27;98251;-64
2022/01/20 03:46:51;;;;;;;;;;;;;;;12.67;52.66;100478.44;4983495;28;98619;-63
2022/01/20 03:49:33;;;;;;;;;;;;;;;12.66;52.78;100482.25;4982705;27;97779;-64
2022/01/20 03:51:59;;;;;;;;;;;;;;;12.64;52.73;100484.41;4983082;27;98363;-56
2022/01/20 03:54:25;;;;;;;;;;;;;;;12.62;52.64;100484.69;4982303;28;126630;-56
2022/01/20 03:56:51;;;;;;;;;;;;;;;12.61;52.76;100480.34;4981968;28;128532;-64
2022/01/20 03:59:17;;;;;;;;;;;;;;;12.60;52.64;100489.56;4981572;27;117744;-57
2022/01/20 04:01:43;;;;;;;;;;;;;;;12.59;52.55;100489.84;4982171;27;129280;-56
2022/01/20 04:04:09;;;;;;;;;;;;;;;12.58;52.55;100491.75;4982726;27;98296;-56
2022/01/20 04:06:35;;;;;;;;;;;;;;;12.56;52.60;100488.50;4981262;27;127473;-64
2022/01/20 04:09:01;;;;;;;;;;;;;;;12.55;52.65;100478.00;4982212;28;118845;-64
2022/01/20 04:11:28;;;;;;;;;;;;;;;12.53;52.67;100479.06;4981451;27;124821;-57
2022/01/20 04:13:54;;;;;;;;;;;;;;;12.53;52.46;100484.47;4981350;28;129692;-64
2022/01/20 04:17:06;;;;;;;;;;;;;;;12.51;52.68;100473.13;4964347;28;98236;-57
2022/01/20 04:19:32;;;;;;;;;;;;;;;12.49;52.67;100466.38;4982403;28;97810;-56
2022/01/20 04:21:59;;;;;;;;;;;;;;;12.47;52.49;100457.75;4982623;27;98971;-56
2022/01/20 04:24:25;;;;;;;;;;;;;;;12.48;52.97;100462.06;4981554;27;99134;-57
2022/01/20 04:26:51;;;;;;;;;;;;;;;12.48;52.61;100459.38;4981680;27;128584;-64
2022/01/20 04:29:17;;;;;;;;;;;;;;;12.46;52.48;100454.25;5013462;27;116116;-63
2022/01/20 04:31:43;;;;;;;;;;;;;;;12.45;52.53;100449.09;4979315;28;125104;-57
2022/01/20 04:34:10;;;;;;;;;;;;;;;12.44;52.77;100451.00;4982635;27;98975;-57
2022/01/20 04:36:39;;;;;;;;;;;;;;;12.43;52.44;100444.00;4981858;27;98014;-56
2022/01/20 04:39:07;;;;;;;;;;;;;;;12.42;52.48;100436.97;4983143;27;97903;-64
2022/01/20 04:41:33;;;;;;;;;;;;;;;12.42;52.55;100442.38;4981602;27;99260;-64
2022/01/20 04:44:01;;;;;;;;;;;;;;;12.43;52.48;100444.00;4981986;28;100739;-56
2022/01/20 04:57:21;;;;;;;;;;;;;;;12.43;52.29;100432.38;4978340;28;98030;-64
2022/01/20 04:59:48;;;;;;;;;;;;;;;12.42;52.30;100414.53;4982100;27;98006;-57
2022/01/20 05:02:15;;;;;;;;;;;;;;;12.44;52.35;100409.66;4982783;27;98705;-56
2022/01/20 05:04:41;;;;;;;;;;;;;;;12.44;52.16;100415.84;4981926;27;98311;-64
2022/01/20 05:07:08;;;;;;;;;;;;;;;12.45;52.22;100412.06;4982545;27;98426;-56
2022/01/20 05:09:34;;;;;;;;;;;;;;;12.47;52.25;100403.69;4979878;27;98580;-56
2022/01/20 05:14:26;;;;;;;;;;;;;;;12.49;52.29;100396.09;4979010;27;116984;-64
2022/01/20 05:16:53;;;;;;;;;;;;;;;12.50;52.25;100401.22;4981226;27;117880;-64
2022/01/20 05:19:19;;;;;;;;;;;;;;;12.51;52.04;100394.72;4981943;27;97971;-57
2022/01/20 05:21:45;;;;;;;;;;;;;;;12.50;52.14;100395.81;4980790;27;109472;-57
2022/01/20 05:24:11;;;;;;;;;;;;;;;12.51;52.07;100389.31;4980953;28;98417;-64
2022/01/20 05:26:37;;;;;;;;;;;;;;;12.51;52.07;100386.63;4980354;28;127705;-56
2022/01/20 05:29:03;;;;;;;;;;;;;;;12.52;51.82;100379.31;4980515;28;117865;-57
2022/01/20 05:31:29;;;;;;;;;;;;;;;12.53;51.84;100386.31;4979700;27;126035;-56
2022/01/20 05:33:55;;;;;;;;;;;;;;;12.53;51.87;100370.09;4979921;28;127910;-56
2022/01/20 05:36:21;;;;;;;;;;;;;;;12.53;51.76;100372.81;4979980;27;127933;-57
2022/01/20 05:38:47;;;;;;;;;;;;;;;12.55;51.83;100372.53;4978877;28;117563;-57
2022/01/20 05:41:13;;;;;;;;;;;;;;;12.55;51.70;100367.94;4975870;28;126861;-57
2022/01/20 05:43:39;;;;;;;;;;;;;;;12.56;51.96;100371.44;4976395;28;128049;-56
2022/01/20 05:46:05;;;;;;;;;;;;;;;12.55;51.84;100376.06;4950181;28;100273;-57
2022/01/20 05:48:35;;;;;;;;;;;;;;;12.55;51.57;100389.56;4959994;27;97719;-56
2022/01/20 05:51:01;;;;;;;;;;;;;;;12.55;51.76;100391.47;4967096;28;99762;-56
2022/01/20 05:53:27;;;;;;;;;;;;;;;12.54;51.65;100369.03;4980536;27;98413;-57
2022/01/20 05:55:53;;;;;;;;;;;;;;;12.54;51.77;100355.50;4977735;28;127190;-56
2022/01/20 05:58:19;;;;;;;;;;;;;;;12.54;51.64;100355.50;4961567;28;117660;-56
2022/01/20 06:00:46;;;;;;;;;;;;;;;12.53;51.63;100356.59;4976661;28;128197;-56
2022/01/20 06:05:56;;;;;;;;;;;;;;;12.51;51.70;100358.78;4980935;28;97892;-56
2022/01/20 06:08:22;;;;;;;;;;;;;;;12.51;51.59;100350.66;4980068;27;104446;-57
2022/01/20 06:10:48;;;;;;;;;;;;;;;12.50;51.67;100349.06;4978323;28;115860;-57
2022/01/20 06:13:14;;;;;;;;;;;;;;;12.49;51.49;100356.34;4979701;28;99103;-56
2022/01/20 06:15:40;;;;;;;;;;;;;;;12.49;51.61;100352.84;4979095;28;127538;-56
2022/01/20 06:18:06;;;;;;;;;;;;;;;12.49;51.61;100342.81;4979356;28;117395;-56
2022/01/20 06:20:32;;;;;;;;;;;;;;;12.48;51.65;100345.81;4978872;27;115494;-57
2022/01/20 06:22:58;;;;;;;;;;;;;;;12.47;51.76;100345.00;4979514;28;128814;-56
2022/01/20 06:25:24;;;;;;;;;;;;;;;12.47;51.62;100350.41;4979426;27;113464;-56
2022/01/20 06:27:50;;;;;;;;;;;;;;;12.45;51.64;100336.38;4981666;28;98290;-63
2022/01/20 06:30:16;;;;;;;;;;;;;;;12.45;51.79;100333.66;4978737;28;120234;-63
2022/01/20 06:32:42;;;;;;;;;;;;;;;12.45;51.72;100332.84;4980338;28;127760;-56
2022/01/20 06:35:08;;;;;;;;;;;;;;;12.43;51.88;100327.75;4977573;28;126466;-64
2022/01/20 06:37:34;;;;;;;;;;;;;;;12.43;51.73;100346.66;4980260;28;108448;-56
2022/01/20 06:40:00;;;;;;;;;;;;;;;12.43;51.80;100400.72;4980229;28;98526;-64
2022/01/20 06:42:26;;;;;;;;;;;;;;;12.43;51.82;100486.44;4980363;28;98879;-64
2022/01/20 06:44:52;;;;;;;;;;;;;;;12.41;51.78;100505.63;4979136;28;114070;-57
2022/01/20 06:47:19;;;;;;;;;;;;;;;12.39;51.70;100479.97;4979074;28;117656;-56
2022/01/20 06:49:45;;;;;;;;;;;;;;;12.35;51.77;100473.50;4979071;27;98438;-64
2022/01/20 06:52:11;;;;;;;;;;;;;;;12.32;51.68;100457.84;4978786;28;129426;-56
2022/01/20 06:54:37;;;;;;;;;;;;;;;12.27;51.79;100469.50;4980569;28;98206;-64
2022/01/20 06:57:04;;;;;;;;;;;;;;;12.24;51.95;100470.84;4979837;28;115490;-64
2022/01/20 06:59:30;;;;;;;;;;;;;;;12.22;51.81;100485.72;4978883;28;119303;-63
2022/01/20 07:01:56;;;;;;;;;;;;;;;12.19;51.76;100470.88;4978966;28;119743;-57
2022/01/20 07:04:23;;;;;;;;;;;;;;;12.17;51.84;100462.22;4980290;27;98370;-63
2022/01/20 07:06:49;;;;;;;;;;;;;;;12.15;51.81;100464.41;4981001;28;97928;-56
2022/01/20 07:09:14;;;;;;;;;;;;;;;12.14;51.79;100454.66;4978571;28;126329;-56
2022/01/20 07:11:40;;;;;;;;;;;;;;;12.14;51.78;100446.56;4981716;28;128796;-63
2022/01/20 07:14:06;;;;;;;;;;;;;;;12.13;51.67;100442.25;4982243;28;128108;-57
2022/01/20 07:16:32;;;;;;;;;;;;;;;12.11;51.80;100441.75;4983866;27;97674;-56
2022/01/20 07:18:58;;;;;;;;;;;;;;;12.12;51.95;100451.47;4981784;28;125722;-64
2022/01/20 07:21:24;;;;;;;;;;;;;;;12.11;51.80;100474.16;4981515;28;129092;-57
2022/01/20 07:23:50;;;;;;;;;;;;;;;12.13;51.83;100482.78;4981649;27;97916;-56
2022/01/20 07:26:16;;;;;;;;;;;;;;;12.13;51.83;100479.28;4981841;27;118521;-56
2022/01/20 07:28:42;;;;;;;;;;;;;;;12.13;51.62;100490.88;4982941;27;97775;-64
2022/01/20 07:31:09;;;;;;;;;;;;;;;12.13;51.88;100490.88;4982572;27;126717;-63
2022/01/20 07:33:34;;;;;;;;;;;;;;;12.14;52.20;100503.31;4982599;28;108490;-64
2022/01/20 07:36:00;;;;;;;;;;;;;;;12.15;51.87;100506.84;4982293;27;108861;-57
2022/01/20 07:38:26;;;;;;;;;;;;;;;12.16;51.50;100516.56;4982514;28;98438;-63
2022/01/20 07:40:52;;;;;;;;;;;;;;;12.17;51.80;100526.28;4982734;28;98913;-56
2022/01/20 07:43:18;;;;;;;;;;;;;;;12.18;51.85;100536.00;4982370;28;127793;-63
2022/01/20 07:45:45;;;;;;;;;;;;;;;12.20;51.92;100531.13;4981677;28;115214;-63
2022/01/20 07:48:10;;;;;;;;;;;;;;;12.19;51.88;100522.22;4982919;27;98397;-56
2022/01/20 07:50:37;;;;;;;;;;;;;;;12.20;51.90;100539.25;4981740;28;126994;-56
2022/01/20 07:53:03;;;;;;;;;;;;;;;12.21;51.94;100543.56;4983053;27;98279;-56
2022/01/20 07:55:29;;;;;;;;;;;;;;;12.22;51.78;100537.06;4982796;28;103546;-63
2022/01/20 07:57:55;;;;;;;;;;;;;;;12.22;51.72;100545.16;4983062;27;98690;-64
2022/01/20 08:00:21;;;;;;;;;;;;;;;12.22;51.97;100551.41;4981457;27;128327;-63
2022/01/20 08:02:47;;;;;;;;;;;;;;;12.22;51.92;100554.09;4982949;27;97766;-56
2022/01/20 08:05:13;;;;;;;;;;;;;;;12.26;51.91;100567.84;4980913;27;117717;-56
2022/01/20 08:07:39;;;;;;;;;;;;;;;12.37;51.61;100571.34;4981058;27;118535;-56
2022/01/20 08:10:06;;;;;;;;;;;;;;;12.45;51.46;100584.28;4981498;27;122425;-56
2022/01/20 08:12:32;;;;;;;;;;;;;;;12.47;51.35;100585.63;4981875;27;97998;-56
2022/01/20 08:14:59;;;;;;;;;;;;;;;12.46;51.74;100591.31;4980678;27;118755;-57
2022/01/20 08:17:25;;;;;;;;;;;;;;;12.45;51.49;100601.31;4981508;27;98887;-56
2022/01/20 08:19:51;;;;;;;;;;;;;;;12.46;51.70;100602.13;4981350;28;110537;-56
2022/01/20 08:22:17;;;;;;;;;;;;;;;12.45;51.75;100616.72;4981248;28;98095;-57
2022/01/20 08:24:43;;;;;;;;;;;;;;;12.46;51.79;100610.25;4981138;27;101592;-56
2022/01/20 08:27:09;;;;;;;;;;;;;;;12.44;51.80;100629.44;4981172;27;98534;-56
2022/01/20 08:29:36;;;;;;;;;;;;;;;12.47;51.99;100628.06;4981011;28;98355;-56
2022/01/20 08:32:03;;;;;;;;;;;;;;;12.57;51.86;100640.75;4981755;27;98063;-57
2022/01/20 08:34:29;;;;;;;;;;;;;;;12.62;51.77;100632.63;4980905;27;110521;-57
2022/01/20 08:36:55;;;;;;;;;;;;;;;12.65;51.79;100640.16;4980292;28;119707;-56
2022/01/20 08:39:43;;;;;;;;;;;;;;;12.70;51.64;100630.16;4980641;27;97822;-56
2022/01/20 08:42:09;;;;;;;;;;;;;;;12.84;51.72;100648.47;4980616;27;97780;-56
2022/01/20 08:44:35;;;;;;;;;;;;;;;12.99;51.20;100651.09;4981746;27;98014;-56
2022/01/20 08:47:02;;;;;;;;;;;;;;;12.99;51.48;100648.41;4981043;28;128313;-57
2022/01/20 08:49:28;;;;;;;;;;;;;;;13.47;50.54;100652.19;4979739;27;98779;-56
2022/01/20 08:51:54;;;;;;;;;;;;;;;13.71;50.04;100649.56;4980358;27;112886;-57
2022/01/20 08:54:20;;;;;;;;;;;;;;;14.22;49.28;100653.69;4980541;27;117544;-56
2022/01/20 08:56:46;;;;;;;;;;;;;;;14.40;49.51;100654.88;4981353;28;98668;-56
2022/01/20 08:59:12;;;;;;;;;;;;;;;14.76;49.13;100649.88;4981094;27;98300;-57
2022/01/20 09:01:40;;;;;;;;;;;;;;;15.98;46.95;100657.31;4979990;28;102330;-57
2022/01/20 09:04:06;;;;;;;;;;;;;;;16.71;46.45;100651.03;4981410;28;98009;-56
2022/01/20 09:06:32;;;;;;;;;;;;;;;17.15;46.14;100638.69;4981760;27;98488;-57
2022/01/20 09:08:58;;;;;;;;;;;;;;;17.60;46.00;100644.97;4980326;27;98956;-57
2022/01/20 09:11:30;;;;;;;;;;;;;;;18.19;45.64;100647.56;4980553;28;97809;-57
2022/01/20 09:16:41;;;;;;;;;;;;;;;18.82;45.30;100653.75;4981196;28;98102;-64
2022/01/20 09:19:07;;;;;;;;;;;;;;;18.82;46.00;100657.34;4980067;28;109374;-64
2022/01/20 09:21:33;;;;;;;;;;;;;;;18.79;46.37;100665.34;5012977;27;118766;-64
2022/01/20 09:23:59;;;;;;;;;;;;;;;18.81;46.72;100657.63;4981166;27;117410;-63
2022/01/20 09:26:25;;;;;;;;;;;;;;;18.99;46.70;100677.59;5012577;27;100500;-57
2022/01/20 09:28:50;;;;;;;;;;;;;;;19.17;46.65;100676.47;4980586;27;98397;-64
2022/01/20 09:31:21;;;;;;;;;;;;;;;19.32;46.61;100680.69;4979873;28;127230;-57
2022/01/20 09:33:47;;;;;;;;;;;;;;;19.42;46.76;100694.03;4980886;27;97763;-64
2022/01/20 09:36:13;;;;;;;;;;;;;;;19.44;46.71;100702.72;4980620;28;128247;-57
2022/01/20 09:38:39;;;;;;;;;;;;;;;19.32;47.19;100703.34;4978330;28;98212;-64
2022/01/20 09:41:05;;;;;;;;;;;;;;;19.34;47.39;100703.84;4980049;28;128129;-64
2022/01/20 09:43:31;;;;;;;;;;;;;;;19.11;47.87;100714.09;4980427;28;97833;-64
2022/01/20 09:45:57;;;;;;;;;;;;;;;19.13;47.62;100719.22;4978196;28;110156;-65
2022/01/20 09:48:23;;;;;;;;;;;;;;;18.99;47.88;100715.84;4979232;28;123227;-64
2022/01/20 09:50:49;;;;;;;;;;;;;;;18.97;47.91;100716.13;4979570;27;122313;-64
2022/01/20 09:53:16;;;;;;;;;;;;;;;18.85;48.04;100718.69;4981432;27;97811;-65
2022/01/20 09:55:42;;;;;;;;;;;;;;;18.83;48.34;100718.19;4980305;27;98127;-63
2022/01/20 09:58:08;;;;;;;;;;;;;;;18.77;48.47;100717.53;4981156;27;106677;-65
2022/01/20 10:00:34;;;;;;;;;;;;;;;18.70;48.50;100724.53;4979877;27;98909;-65
2022/01/20 10:03:09;;;;;;;;;;;;;;;18.65;48.46;100739.94;4980515;27;98158;-64
2022/01/20 10:05:38;;;;;;;;;;;;;;;18.49;48.61;100716.09;4979212;27;98510;-63
2022/01/20 10:08:05;;;;;;;;;;;;;;;18.33;48.85;100727.41;4981529;28;98595;-64
2022/01/20 10:10:43;;;;;;;;;;;;;;;18.24;49.13;100742.94;4979925;28;97742;-64
2022/01/20 10:13:10;;;;;;;;;;;;;;;18.10;49.08;100729.38;4981125;27;97756;-64
2022/01/20 10:15:36;;;;;;;;;;;;;;;17.99;49.32;100733.47;4979864;27;98036;-64
2022/01/20 10:18:12;;;;;;;;;;;;;;;17.90;49.19;100735.34;4979736;28;98727;-64
2022/01/20 10:20:53;;;;;;;;;;;;;;;17.79;49.17;100736.69;4980342;27;98005;-64
2022/01/20 10:23:33;;;;;;;;;;;;;;;17.67;49.29;100727.09;4981587;27;97971;-64
2022/01/20 10:26:25;;;;;;;;;;;;;;;17.59;49.47;100708.75;4979820;27;98768;-64
2022/01/20 10:29:03;;;;;;;;;;;;;;;17.51;49.37;100727.78;4977823;27;102595;-64
2022/01/20 10:31:46;;;;;;;;;;;;;;;17.37;49.69;100730.53;4978222;28;99619;-64
2022/01/20 10:34:19;;;;;;;;;;;;;;;17.23;49.65;100722.38;4967393;28;98212;-64
2022/01/20 10:36:54;;;;;;;;;;;;;;;17.13;49.71;100726.16;4979896;27;99355;-64
2022/01/20 10:39:29;;;;;;;;;;;;;;;17.01;49.78;100731.28;4979739;28;99060;-64
2022/01/20 10:42:03;;;;;;;;;;;;;;;16.93;49.74;100727.34;4980376;27;98393;-64
2022/01/20 10:44:49;;;;;;;;;;;;;;;16.85;49.80;100721.81;4980799;27;97864;-64
2022/01/20 10:47:16;;;;;;;;;;;;;;;16.76;49.99;100720.91;4980544;28;98631;-64
2022/01/20 10:49:43;;;;;;;;;;;;;;;16.62;49.97;100720.88;4982801;27;119308;-64
2022/01/20 10:52:10;;;;;;;;;;;;;;;16.56;49.96;100736.50;4984818;27;97693;-64
2022/01/20 10:54:44;;;;;;;;;;;;;;;16.48;49.97;100728.22;4984572;27;98280;-64
2022/01/20 10:57:11;;;;;;;;;;;;;;;16.47;50.04;100713.03;4963513;28;98656;-64
2022/01/20 11:00:08;;;;;;;;;;;;;;;16.37;50.17;100711.28;4981249;28;98754;-64
2022/01/20 11:02:34;;;;;;;;;;;;;;;16.20;50.30;100699.06;4973934;27;98549;-64
2022/01/20 11:05:00;;;;;;;;;;;;;;;16.12;50.30;100710.63;4983642;27;99423;-64
2022/01/20 11:07:28;;;;;;;;;;;;;;;16.01;50.26;100711.09;4983659;28;98517;-64
2022/01/20 11:10:02;;;;;;;;;;;;;;;16.02;50.25;100726.31;4963003;28;98279;-64
2022/01/20 11:12:28;;;;;;;;;;;;;;;15.86;50.32;100712.16;4964046;28;98720;-64
2022/01/20 11:14:55;;;;;;;;;;;;;;;15.78;50.08;100710.91;4963827;28;98098;-64
2022/01/20 11:17:22;;;;;;;;;;;;;;;15.68;50.29;100727.41;4983438;27;121281;-64
2022/01/20 11:19:48;;;;;;;;;;;;;;;15.61;50.29;100727.72;4983292;27;98594;-64
2022/01/20 11:22:14;;;;;;;;;;;;;;;15.58;50.16;100720.16;4983536;27;98323;-57
2022/01/20 11:24:41;;;;;;;;;;;;;;;15.51;50.42;100724.34;4983712;27;97837;-57
2022/01/20 11:27:09;;;;;;;;;;;;;;;15.40;50.29;100723.66;4983460;27;98836;-64
2022/01/20 11:29:49;;;;;;;;;;;;;;;15.36;50.44;100719.94;4983005;28;98509;-55
2022/01/20 11:32:19;;;;;;;;;;;;;;;15.32;50.32;100719.69;4983483;27;122221;-64
2022/01/20 11:35:01;;;;;;;;;;;;;;;15.23;50.25;100719.56;4982789;27;97883;-64
2022/01/20 11:37:32;;;;;;;;;;;;;;;15.31;50.21;100730.88;4981449;27;98929;-57
2022/01/20 11:40:16;;;;;;;;;;;;;;;15.25;50.10;100727.44;4979641;27;99025;-64
2022/01/20 11:42:54;;;;;;;;;;;;;;;15.21;50.21;100720.97;4980613;27;98030;-57
2022/01/20 11:45:36;;;;;;;;;;;;;;;15.21;49.99;100723.69;4978584;27;102243;-57
2022/01/20 11:48:19;;;;;;;;;;;;;;;15.20;49.85;100730.19;4980082;27;98017;-64
2022/01/20 11:50:46;;;;;;;;;;;;;;;15.20;50.13;100724.75;4977342;27;98524;-64
2022/01/20 11:53:14;;;;;;;;;;;;;;;15.19;50.20;100720.44;4979308;27;99147;-64
2022/01/20 11:55:58;;;;;;;;;;;;;;;15.22;50.04;100723.38;4978423;27;98017;-57
2022/01/20 11:58:25;;;;;;;;;;;;;;;15.14;50.17;100713.16;4978585;27;104568;-64
2022/01/20 12:01:05;;;;;;;;;;;;;;;15.10;50.27;100712.13;4979451;27;98349;-56
2022/01/20 12:03:31;;;;;;;;;;;;;;;15.16;49.96;100710.16;4979551;27;98204;-57
2022/01/20 12:06:01;;;;;;;;;;;;;;;15.16;49.84;100721.00;4978832;27;98381;-64
2022/01/20 12:08:27;;;;;;;;;;;;;;;15.10;50.04;100712.13;4976647;28;98527;-64
2022/01/20 12:11:07;;;;;;;;;;;;;;;15.09;50.04;100706.97;4977158;27;128184;-64
2022/01/20 12:13:44;;;;;;;;;;;;;;;15.13;49.98;100706.13;4979879;28;98492;-64
2022/01/20 12:16:10;;;;;;;;;;;;;;;15.19;49.97;100709.56;4976794;27;97972;-65
2022/01/20 12:18:36;;;;;;;;;;;;;;;15.21;49.95;100716.34;4975555;28;127858;-56
2022/01/20 12:21:04;;;;;;;;;;;;;;;15.17;49.82;100720.75;4976171;27;128495;-64
2022/01/20 12:23:30;;;;;;;;;;;;;;;15.25;49.84;100708.41;4971731;28;98181;-64
2022/01/20 12:26:03;;;;;;;;;;;;;;;15.31;49.76;100712.66;4977992;27;116304;-64
2022/01/20 12:28:29;;;;;;;;;;;;;;;15.42;49.43;100713.34;4979310;27;99027;-56
2022/01/20 12:31:00;;;;;;;;;;;;;;;15.45;49.42;100708.13;4978683;27;108112;-57
2022/01/20 12:33:27;;;;;;;;;;;;;;;15.53;49.45;100698.50;4977671;27;109129;-63
2022/01/20 12:35:54;;;;;;;;;;;;;;;15.62;49.54;100699.44;4978899;27;98118;-64
2022/01/20 12:38:46;;;;;;;;;;;;;;;15.55;49.51;100696.28;4978761;27;99142;-57
2022/01/20 12:41:19;;;;;;;;;;;;;;;15.45;49.78;100707.31;4979538;27;98256;-64
2022/01/20 12:43:47;;;;;;;;;;;;;;;15.38;49.83;100702.25;4971717;28;98754;-57
2022/01/20 12:46:18;;;;;;;;;;;;;;;15.26;50.13;100693.72;4978677;28;97898;-57
2022/01/20 12:48:56;;;;;;;;;;;;;;;15.14;49.83;100690.66;4977297;27;99069;-57
2022/01/20 12:51:42;;;;;;;;;;;;;;;15.05;49.94;100700.53;4978787;27;98326;-57
2022/01/20 12:54:27;;;;;;;;;;;;;;;14.95;49.99;100698.75;4978519;27;121236;-64
2022/01/20 12:56:54;;;;;;;;;;;;;;;14.88;50.34;100687.44;4979187;28;97982;-57
2022/01/20 12:59:25;;;;;;;;;;;;;;;14.81;50.12;100687.78;4977126;27;122189;-64
2022/01/20 13:01:52;;;;;;;;;;;;;;;14.77;50.17;100694.88;4978456;28;98299;-56
2022/01/20 13:04:20;;;;;;;;;;;;;;;14.73;50.47;100685.72;4979123;27;98430;-57
2022/01/20 13:06:52;;;;;;;;;;;;;;;14.65;50.66;100681.72;4975682;28;108693;-57
2022/01/20 13:09:20;;;;;;;;;;;;;;;14.57;50.39;100690.50;4974794;28;98496;-64
2022/01/20 13:11:59;;;;;;;;;;;;;;;14.48;50.67;100687.59;4978600;27;98395;-63
2022/01/20 13:14:41;;;;;;;;;;;;;;;14.42;50.84;100682.50;4977393;27;97935;-64
2022/01/20 13:17:08;;;;;;;;;;;;;;;14.35;50.41;100673.94;4973894;28;97898;-64
2022/01/20 13:19:45;;;;;;;;;;;;;;;14.35;50.76;100680.16;4977837;27;98526;-64
2022/01/20 13:22:24;;;;;;;;;;;;;;;14.42;50.56;100682.50;4978025;28;98999;-64
2022/01/20 13:24:50;;;;;;;;;;;;;;;14.45;50.89;100684.66;4977049;27;98426;-56
2022/01/20 13:27:16;;;;;;;;;;;;;;;14.49;50.64;100702.00;4977352;28;116862;-56
2022/01/20 13:29:52;;;;;;;;;;;;;;;14.56;50.45;100698.94;4975188;28;98611;-63
2022/01/20 13:32:18;;;;;;;;;;;;;;;14.63;50.18;100694.78;4977450;27;98951;-64
2022/01/20 13:35:04;;;;;;;;;;;;;;;14.64;50.37;100688.25;4976391;27;128566;-64
2022/01/20 13:37:30;;;;;;;;;;;;;;;14.70;49.88;100697.16;4977968;27;98186;-63
2022/01/20 13:39:58;;;;;;;;;;;;;;;14.75;49.93;100691.66;4977529;28;99185;-56
2022/01/20 13:45:14;;;;;;;;;;;;;;;14.81;49.67;100686.97;4976700;27;98178;-63
2022/01/20 13:47:54;;;;;;;;;;;;;;;14.89;49.51;100689.84;4975553;27;98246;-63
2022/01/20 13:50:37;;;;;;;;;;;;;;;14.85;49.58;100683.38;4976617;27;98621;-64
2022/01/20 13:53:20;;;;;;;;;;;;;;;14.78;50.08;100679.44;4978030;28;98543;-56